createdAt,value
2022-10-17T00:01:27.017Z,22.80
2022-10-17T00:03:54.043Z,23.80
2022-10-17T00:06:21.187Z,19.60
2022-10-17T00:08:48.137Z,19.50
2022-10-17T00:11:23.173Z,23.50
2022-10-17T00:13:51.134Z,19.50
2022-10-17T00:16:26.209Z,20.30
2022-10-17T00:18:53.523Z,26.70
2022-10-17T00:21:21.103Z,20.70
2022-10-17T00:23:48.134Z,18.00
2022-10-17T00:26:16.407Z,25.90
2022-10-17T00:28:46.010Z,19.60
2022-10-17T00:31:13.060Z,20.40
2022-10-17T00:33:40.142Z,22.70
2022-10-17T00:36:16.487Z,20.40
2022-10-17T00:38:44.544Z,21.10
2022-10-17T00:41:13.022Z,24.60
2022-10-17T00:43:50.209Z,25.50
2022-10-17T00:46:17.561Z,20.20
2022-10-17T00:48:44.610Z,22.50
2022-10-17T00:51:11.575Z,26.50
2022-10-17T00:53:39.640Z,26.70
2022-10-17T00:56:06.878Z,30.80
2022-10-17T00:58:33.933Z,30.60
2022-10-17T01:01:02.010Z,25.10
2022-10-17T01:03:29.043Z,27.90
2022-10-17T01:05:56.092Z,28.90
2022-10-17T01:08:23.341Z,30.20
2022-10-17T01:11:22.546Z,29.30
2022-10-17T01:13:57.473Z,30.80
2022-10-17T01:16:53.704Z,30.10
2022-10-17T01:19:52.088Z,29.30
2022-10-17T01:22:41.060Z,38.60
2022-10-17T01:25:26.016Z,29.80
2022-10-17T01:28:31.497Z,31.70
2022-10-17T01:31:11.320Z,27.10
2022-10-17T01:33:44.608Z,27.20
2022-10-17T01:36:13.437Z,23.30
2022-10-17T01:38:51.100Z,26.40
2022-10-17T01:41:40.285Z,22.60
2022-10-17T01:44:21.539Z,25.20
2022-10-17T01:49:27.751Z,21.50
2022-10-17T01:52:10.442Z,20.40
2022-10-17T01:54:43.110Z,24.70
2022-10-17T01:57:20.610Z,21.00
2022-10-17T01:59:48.156Z,23.30
2022-10-17T02:02:16.847Z,20.80
2022-10-17T02:04:43.891Z,23.10
2022-10-17T02:07:12.169Z,22.50
2022-10-17T02:09:39.422Z,20.40
2022-10-17T02:12:24.895Z,16.90
2022-10-17T02:15:25.018Z,19.60
2022-10-17T02:18:15.211Z,17.90
2022-10-17T02:21:00.913Z,17.50
2022-10-17T02:23:58.148Z,18.60
2022-10-17T02:26:35.432Z,19.60
2022-10-17T02:29:38.117Z,18.10
2022-10-17T02:32:10.219Z,17.70
2022-10-17T02:34:43.181Z,20.50
2022-10-17T02:37:11.095Z,15.70
2022-10-17T02:39:38.287Z,16.50
2022-10-17T02:42:06.868Z,17.30
2022-10-17T02:44:33.915Z,18.90
2022-10-17T02:47:30.457Z,16.80
2022-10-17T02:49:58.731Z,19.90
2022-10-17T02:52:30.888Z,18.70
2022-10-17T02:55:01.661Z,17.60
2022-10-17T02:57:44.960Z,20.00
2022-10-17T03:00:14.472Z,18.60
2022-10-17T03:02:43.428Z,22.30
2022-10-17T03:05:11.708Z,17.70
2022-10-17T03:07:38.816Z,21.00
2022-10-17T03:10:06.441Z,17.40
2022-10-17T03:12:33.625Z,20.00
2022-10-17T03:15:00.636Z,19.10
2022-10-17T03:17:29.134Z,16.70
2022-10-17T03:19:56.164Z,27.70
2022-10-17T03:22:23.449Z,40.80
2022-10-17T03:24:50.673Z,37.90
2022-10-17T03:27:17.836Z,42.10
2022-10-17T03:29:45.137Z,36.10
2022-10-17T03:32:13.658Z,35.30
2022-10-17T03:34:41.217Z,40.00
2022-10-17T03:37:08.669Z,37.90
2022-10-17T03:39:36.063Z,41.10
2022-10-17T03:42:03.481Z,44.20
2022-10-17T03:44:30.849Z,34.90
2022-10-17T03:46:58.907Z,41.50
2022-10-17T03:49:26.164Z,34.40
2022-10-17T03:51:53.618Z,30.20
2022-10-17T03:54:20.592Z,30.20
2022-10-17T03:56:47.693Z,30.40
2022-10-17T03:59:17.420Z,29.90
2022-10-17T04:01:49.829Z,25.40
2022-10-17T04:04:17.376Z,22.90
2022-10-17T04:06:45.014Z,21.70
2022-10-17T04:09:12.173Z,20.30
2022-10-17T04:11:47.916Z,17.20
2022-10-17T04:14:15.265Z,18.70
2022-10-17T04:16:42.522Z,21.10
2022-10-17T04:19:35.434Z,21.50
2022-10-17T04:22:04.385Z,19.10
2022-10-17T04:24:55.057Z,15.70
2022-10-17T04:27:45.724Z,20.30
2022-10-17T04:30:14.378Z,17.00
2022-10-17T04:32:41.537Z,19.20
2022-10-17T04:35:19.735Z,17.60
2022-10-17T04:37:50.892Z,14.60
2022-10-17T04:40:18.640Z,20.20
2022-10-17T04:42:46.007Z,18.10
2022-10-17T04:45:15.191Z,30.70
2022-10-17T04:47:42.444Z,24.30
2022-10-17T04:50:10.415Z,29.30
2022-10-17T04:52:37.770Z,29.10
2022-10-17T04:57:43.133Z,21.20
2022-10-17T05:00:16.942Z,24.30
2022-10-17T05:02:54.217Z,23.00
2022-10-17T05:05:21.471Z,20.10
2022-10-17T05:07:51.282Z,25.30
2022-10-17T05:10:20.396Z,26.90
2022-10-17T05:12:49.387Z,27.10
2022-10-17T05:15:17.952Z,24.10
2022-10-17T05:17:45.093Z,28.60
2022-10-17T05:20:12.966Z,29.40
2022-10-17T05:22:42.122Z,30.20
2022-10-17T05:25:10.235Z,26.10
2022-10-17T05:27:38.383Z,20.80
2022-10-17T05:30:06.414Z,20.70
2022-10-17T05:32:34.450Z,18.10
2022-10-17T05:35:02.149Z,23.70
2022-10-17T05:37:30.490Z,29.50
2022-10-17T05:39:58.167Z,23.70
2022-10-17T05:42:25.987Z,32.60
2022-10-17T05:44:53.267Z,22.40
2022-10-17T05:47:20.828Z,20.00
2022-10-17T05:49:51.456Z,25.90
2022-10-17T05:52:22.299Z,21.30
2022-10-17T05:55:03.679Z,19.20
2022-10-17T05:57:31.953Z,28.70
2022-10-17T06:00:01.152Z,31.20
2022-10-17T06:02:41.814Z,22.50
2022-10-17T06:05:10.612Z,25.30
2022-10-17T06:07:37.961Z,28.20
2022-10-17T06:10:06.806Z,21.00
2022-10-17T06:12:34.312Z,26.50
2022-10-17T06:15:01.572Z,22.50
2022-10-17T06:17:29.523Z,20.00
2022-10-17T06:19:57.600Z,17.70
2022-10-17T06:22:24.949Z,19.60
2022-10-17T06:24:54.048Z,22.00
2022-10-17T06:27:21.234Z,21.20
2022-10-17T06:29:48.549Z,18.20
2022-10-17T06:32:15.518Z,19.60
2022-10-17T06:34:46.108Z,18.30
2022-10-17T06:37:13.274Z,19.00
2022-10-17T06:39:41.686Z,17.40
2022-10-17T06:42:14.098Z,18.60
2022-10-17T06:45:03.250Z,52.60
2022-10-17T06:47:41.807Z,17.20
2022-10-17T06:50:32.018Z,16.20
2022-10-17T06:53:10.111Z,16.80
2022-10-17T06:55:54.170Z,22.90
2022-10-17T06:58:41.883Z,18.80
2022-10-17T07:01:22.970Z,14.70
2022-10-17T07:03:54.312Z,17.10
2022-10-17T07:06:23.613Z,19.30
2022-10-17T07:08:51.683Z,18.70
2022-10-17T07:11:20.879Z,18.80
2022-10-17T07:13:50.283Z,24.30
2022-10-17T07:16:17.636Z,27.20
2022-10-17T07:18:49.912Z,30.30
2022-10-17T07:21:17.971Z,41.00
2022-10-17T07:23:45.025Z,32.10
2022-10-17T07:26:13.632Z,38.80
2022-10-17T07:28:43.442Z,34.20
2022-10-17T07:31:49.108Z,40.90
2022-10-17T07:37:25.605Z,33.50
2022-10-17T07:39:57.037Z,33.90
2022-10-17T07:42:28.055Z,56.10
2022-10-17T07:44:55.660Z,64.30
2022-10-17T07:47:23.577Z,62.30
2022-10-17T07:49:50.830Z,42.40
2022-10-17T07:52:28.177Z,36.40
2022-10-17T07:54:55.525Z,38.60
2022-10-17T07:57:22.669Z,41.40
2022-10-17T07:59:51.505Z,54.60
2022-10-17T08:02:22.863Z,41.10
2022-10-17T08:04:50.251Z,50.70
2022-10-17T08:07:24.104Z,43.80
2022-10-17T08:09:52.426Z,40.90
2022-10-17T08:12:19.397Z,50.10
2022-10-17T08:14:46.745Z,43.50
2022-10-17T08:17:13.778Z,28.20
2022-10-17T08:19:40.864Z,27.40
2022-10-17T08:22:07.874Z,19.60
2022-10-17T08:24:34.866Z,32.30
2022-10-17T08:27:04.671Z,24.80
2022-10-17T08:29:35.399Z,25.30
2022-10-17T08:32:13.210Z,33.60
2022-10-17T08:34:40.136Z,29.60
2022-10-17T08:37:07.174Z,29.50
2022-10-17T08:39:34.099Z,23.40
2022-10-17T08:42:19.760Z,28.70
2022-10-17T08:45:19.284Z,22.40
2022-10-17T08:47:47.805Z,34.30
2022-10-17T08:50:29.138Z,28.20
2022-10-17T08:53:02.984Z,25.50
2022-10-17T08:55:45.408Z,22.00
2022-10-17T08:58:19.558Z,23.60
2022-10-17T09:00:54.467Z,27.30
2022-10-17T09:04:03.402Z,22.50
2022-10-17T09:06:35.521Z,27.00
2022-10-17T09:09:11.521Z,25.10
2022-10-17T09:12:05.803Z,23.60
2022-10-17T09:14:53.346Z,18.90
2022-10-17T09:17:37.739Z,15.60
2022-10-17T09:20:20.917Z,18.40
2022-10-17T09:22:58.947Z,12.90
2022-10-17T09:25:36.928Z,12.80
2022-10-17T09:28:09.970Z,12.60
2022-10-17T09:30:47.883Z,14.30
2022-10-17T09:33:35.595Z,10.90
2022-10-17T09:36:27.761Z,10.70
2022-10-17T09:39:02.145Z,10.90
2022-10-17T09:41:49.598Z,13.10
2022-10-17T09:44:37.902Z,13.00
2022-10-17T09:47:19.882Z,26.40
2022-10-17T17:15:12.586Z,232.80
2022-10-17T17:17:55.731Z,254.50
2022-10-17T17:20:23.360Z,236.20
2022-10-17T17:22:51.105Z,243.40
2022-10-17T17:25:18.265Z,244.50
2022-10-17T17:27:45.601Z,240.90
2022-10-17T17:30:12.969Z,230.60
2022-10-17T17:32:39.978Z,221.90
2022-10-17T17:35:07.358Z,239.40
2022-10-17T17:37:34.411Z,254.00
2022-10-17T17:40:01.430Z,243.40
2022-10-17T17:42:28.708Z,251.10
2022-10-17T17:44:55.714Z,250.80
2022-10-17T17:47:22.798Z,245.90
2022-10-17T17:49:50.049Z,241.10
2022-10-17T17:52:17.096Z,284.60
2022-10-17T17:54:44.661Z,272.90
2022-10-17T17:57:12.882Z,241.30
2022-10-17T17:59:41.319Z,231.20
2022-10-17T18:02:09.279Z,231.90
2022-10-17T18:04:36.553Z,197.40
2022-10-17T18:07:03.619Z,204.80
2022-10-17T18:09:31.923Z,204.30
2022-10-17T18:11:59.614Z,202.20
2022-10-17T18:14:26.599Z,198.40
2022-10-17T18:16:53.764Z,195.60
2022-10-17T18:19:22.395Z,196.00
2022-10-17T18:21:49.503Z,209.90
2022-10-17T18:24:16.527Z,207.20
2022-10-17T18:26:43.545Z,194.40
2022-10-17T18:29:12.955Z,204.60
2022-10-17T18:31:45.356Z,198.40
2022-10-17T18:34:12.370Z,196.00
2022-10-17T18:36:39.314Z,184.90
2022-10-17T18:39:06.383Z,176.30
2022-10-17T18:41:33.733Z,171.20
2022-10-17T18:44:00.962Z,173.10
2022-10-17T18:46:29.671Z,160.10
2022-10-17T18:48:56.644Z,155.30
2022-10-17T18:51:24.684Z,164.90
2022-10-17T18:53:55.924Z,167.50
2022-10-17T18:56:23.320Z,162.20
2022-10-17T18:58:50.384Z,161.30
2022-10-17T19:01:25.131Z,153.80
2022-10-17T19:03:57.900Z,148.20
2022-10-17T19:06:27.113Z,148.10
2022-10-17T19:08:54.165Z,146.50
2022-10-17T19:11:25.729Z,148.80
2022-10-17T19:13:52.922Z,156.00
2022-10-17T19:16:25.008Z,146.90
2022-10-17T19:18:53.406Z,145.50
2022-10-17T19:21:21.972Z,146.70
2022-10-17T19:23:59.730Z,147.70
2022-10-17T19:26:28.055Z,135.40
2022-10-17T19:28:55.229Z,147.40
2022-10-17T19:31:26.823Z,152.00
2022-10-17T19:33:54.458Z,143.70
2022-10-17T19:36:22.078Z,137.40
2022-10-17T19:38:49.062Z,144.70
2022-10-17T19:41:16.458Z,136.80
2022-10-17T19:43:43.738Z,134.30
2022-10-17T19:46:15.667Z,130.50
2022-10-17T19:48:42.929Z,133.00
2022-10-17T19:51:15.037Z,138.40
2022-10-17T19:53:42.633Z,134.60
2022-10-17T19:56:09.750Z,151.60
2022-10-17T19:58:45.353Z,161.80
2022-10-17T20:01:20.476Z,153.70
2022-10-17T20:03:49.431Z,147.80
2022-10-17T20:06:16.787Z,146.70
2022-10-17T20:08:44.232Z,140.90
2022-10-17T20:11:12.997Z,130.90
2022-10-17T20:13:40.128Z,123.40
2022-10-17T20:16:07.908Z,112.90
2022-10-17T20:18:35.111Z,107.50
2022-10-17T20:21:06.580Z,100.10
2022-10-17T20:23:36.812Z,108.60
2022-10-17T20:29:08.914Z,100.50
2022-10-17T20:31:36.334Z,95.50
2022-10-17T20:34:03.672Z,95.30
2022-10-17T20:36:30.768Z,92.60
2022-10-17T20:38:58.646Z,89.10
2022-10-17T20:41:26.060Z,87.70
2022-10-17T20:43:54.197Z,86.90
2022-10-17T20:46:35.498Z,97.90
2022-10-17T20:49:03.317Z,90.90
2022-10-17T20:51:30.422Z,92.40
2022-10-17T20:56:29.968Z,87.00
2022-10-17T20:58:58.600Z,86.40
2022-10-17T21:01:26.015Z,88.10
2022-10-17T21:03:53.342Z,90.90
2022-10-17T21:06:20.421Z,93.80
2022-10-17T21:08:47.820Z,83.80
2022-10-17T21:11:23.555Z,94.50
2022-10-17T21:13:55.848Z,95.80
2022-10-17T21:16:23.043Z,89.90
2022-10-17T21:18:49.960Z,88.60
2022-10-17T21:21:28.054Z,84.60
2022-10-17T21:24:00.478Z,90.00
2022-10-17T21:26:27.502Z,91.50
2022-10-17T21:28:54.704Z,85.80
2022-10-17T21:31:23.383Z,87.60
2022-10-17T21:33:57.938Z,81.40
2022-10-17T21:36:25.835Z,75.40
2022-10-17T21:38:54.203Z,73.30
2022-10-17T21:41:24.665Z,77.90
2022-10-17T21:43:58.131Z,77.30
2022-10-17T21:46:25.303Z,76.60
2022-10-17T21:48:52.757Z,81.60
2022-10-17T21:51:21.705Z,77.00
2022-10-17T21:53:49.126Z,79.90
2022-10-17T21:56:17.997Z,77.30
2022-10-17T21:58:45.155Z,81.00
2022-10-17T22:01:17.295Z,69.80
2022-10-17T22:03:46.967Z,75.40
2022-10-17T22:09:02.840Z,80.30
2022-10-17T22:11:31.108Z,71.30
2022-10-17T22:14:05.867Z,74.70
2022-10-17T22:16:33.217Z,80.10
2022-10-17T22:19:04.807Z,78.00
2022-10-17T22:24:01.807Z,81.50
2022-10-17T22:26:29.743Z,81.60
2022-10-17T22:28:56.858Z,76.40
2022-10-17T22:31:23.928Z,80.10
2022-10-17T22:33:50.963Z,75.40
2022-10-17T22:36:18.009Z,75.40
2022-10-17T22:38:44.987Z,80.50
2022-10-17T22:41:11.873Z,77.10
2022-10-17T22:43:38.749Z,80.70
2022-10-17T22:46:06.315Z,77.50
2022-10-17T22:48:33.228Z,73.40
2022-10-17T22:51:00.465Z,79.80
2022-10-17T22:53:27.414Z,76.20
2022-10-17T22:55:55.648Z,78.20
2022-10-17T22:58:22.832Z,79.90
2022-10-17T23:00:50.288Z,77.70
2022-10-17T23:03:17.434Z,79.60
2022-10-17T23:05:48.963Z,81.40
2022-10-17T23:08:16.202Z,76.60
2022-10-17T23:10:43.108Z,79.60
2022-10-17T23:13:10.075Z,78.50
2022-10-17T23:15:37.014Z,81.00
2022-10-17T23:18:04.297Z,75.50
2022-10-17T23:20:31.347Z,82.50
2022-10-17T23:22:58.372Z,81.60
2022-10-17T23:25:25.521Z,76.70
2022-10-17T23:27:52.475Z,78.60
2022-10-17T23:30:19.419Z,75.80
2022-10-17T23:32:46.402Z,81.30
2022-10-17T23:35:13.567Z,78.20
2022-10-17T23:37:40.484Z,80.10
2022-10-17T23:40:08.005Z,81.90
2022-10-17T23:42:34.912Z,81.10
2022-10-17T23:45:01.824Z,80.60
2022-10-17T23:47:29.056Z,83.30
2022-10-17T23:49:56.985Z,82.80
2022-10-17T23:52:24.376Z,78.70
2022-10-17T23:54:51.249Z,84.10
2022-10-17T23:57:18.334Z,78.30
2022-10-17T23:59:45.256Z,81.20
